Time;durP1;ratioP1;P1;durP2;ratioP2;P2;SDS_P1;SDS_P2;PMS_P1;PMS_P2;Temp;Humidity;BMP_temperature;BMP_pressure;BME280_temperature;BME280_humidity;BME280_pressure;Samples;Min_cycle;Max_cycle;Signal;HPM_P1;HPM_P2
2022/02/27 00:02:00;;;;;;;11.55;3.55;;;6.50;75.90;;;;;;5022529;28;20030;-63
2022/02/27 00:04:26;;;;;;;9.95;2.95;;;6.50;75.90;;;;;;5020171;28;20444;-63
2022/02/27 00:06:51;;;;;;;15.82;3.40;;;6.40;75.80;;;;;;5020245;28;20132;-61
2022/02/27 00:09:17;;;;;;;12.07;2.72;;;6.50;76.00;;;;;;5021791;28;20057;-61
2022/02/27 00:11:43;;;;;;;10.50;3.20;;;6.40;75.80;;;;;;5023419;28;20392;-61
2022/02/27 00:14:08;;;;;;;8.75;2.95;;;6.40;75.80;;;;;;5019372;28;21598;-63
2022/02/27 00:16:34;;;;;;;12.80;3.28;;;6.40;75.90;;;;;;5022230;28;20126;-60
2022/02/27 00:19:00;;;;;;;13.43;3.35;;;6.30;75.90;;;;;;5020103;28;20440;-61
2022/02/27 00:21:25;;;;;;;12.13;2.75;;;6.30;76.00;;;;;;5004476;28;20029;-61
2022/02/27 00:23:51;;;;;;;8.52;2.80;;;6.30;76.00;;;;;;5022531;28;20030;-61
2022/02/27 00:26:16;;;;;;;11.05;3.15;;;6.30;76.00;;;;;;5021804;28;20469;-63
2022/02/27 00:28:42;;;;;;;9.50;2.90;;;6.30;76.00;;;;;;5018544;28;20029;-63
2022/02/27 00:31:08;;;;;;;12.02;3.67;;;6.20;76.00;;;;;;5021981;28;20042;-61
2022/02/27 00:33:33;;;;;;;10.02;3.47;;;6.20;76.00;;;;;;5019205;28;20025;-61
2022/02/27 00:35:59;;;;;;;10.13;3.20;;;6.20;76.00;;;;;;5021136;28;20533;-62
2022/02/27 00:38:25;;;;;;;10.85;3.13;;;6.30;76.20;;;;;;5022899;28;20143;-63
2022/02/27 00:40:50;;;;;;;7.50;3.10;;;6.20;76.10;;;;;;5022292;28;20037;-61
2022/02/27 00:43:16;;;;;;;9.18;3.08;;;6.20;76.00;;;;;;5002782;28;20041;-62
2022/02/27 00:45:41;;;;;;;11.18;3.42;;;6.20;76.20;;;;;;5020067;28;20068;-62
2022/02/27 00:48:07;;;;;;;9.65;3.08;;;6.20;76.10;;;;;;5018719;28;20053;-61
2022/02/27 00:50:32;;;;;;;12.68;2.97;;;6.20;76.10;;;;;;5021217;28;20338;-63
2022/02/27 00:52:58;;;;;;;11.23;3.33;;;6.20;76.10;;;;;;5019776;28;20085;-64
2022/02/27 00:55:23;;;;;;;12.55;3.70;;;6.10;76.10;;;;;;5020508;28;20038;-63
2022/02/27 00:57:49;;;;;;;9.02;3.10;;;6.20;76.30;;;;;;5017334;28;20025;-61
2022/02/27 01:00:15;;;;;;;9.18;2.55;;;6.10;76.20;;;;;;5019828;28;20064;-61
2022/02/27 01:02:40;;;;;;;11.00;3.20;;;6.20;76.30;;;;;;5019420;28;20508;-61
2022/02/27 01:05:06;;;;;;;11.18;3.05;;;6.10;76.20;;;;;;5022727;28;20496;-62
2022/02/27 01:07:31;;;;;;;9.68;3.40;;;6.10;76.20;;;;;;5019255;28;20128;-63
2022/02/27 01:09:57;;;;;;;12.85;2.67;;;6.10;76.20;;;;;;5019759;28;20033;-61
2022/02/27 01:12:22;;;;;;;14.98;3.30;;;6.10;76.20;;;;;;5018146;28;20052;-62
2022/02/27 01:14:48;;;;;;;11.85;2.67;;;6.00;76.20;;;;;;5003882;28;20441;-62
2022/02/27 01:17:14;;;;;;;8.38;2.95;;;6.00;76.20;;;;;;5020253;28;20148;-61
2022/02/27 01:19:39;;;;;;;11.70;3.38;;;6.00;76.20;;;;;;5020416;28;20033;-62
2022/02/27 01:22:05;;;;;;;12.65;3.10;;;6.00;76.30;;;;;;5019183;28;20065;-61
2022/02/27 01:24:30;;;;;;;8.52;2.97;;;6.00;76.30;;;;;;5020042;28;20497;-62
2022/02/27 01:26:56;;;;;;;7.50;2.55;;;6.00;76.30;;;;;;5019365;28;20037;-62
2022/02/27 01:29:21;;;;;;;9.23;3.13;;;5.90;76.30;;;;;;5020031;28;20064;-61
2022/02/27 01:31:47;;;;;;;10.27;3.33;;;5.90;76.40;;;;;;5020295;28;20389;-61
2022/02/27 01:34:12;;;;;;;6.40;2.95;;;5.90;76.40;;;;;;5021397;28;20025;-62
2022/02/27 01:36:38;;;;;;;8.80;2.85;;;5.90;76.50;;;;;;5018578;28;20061;-62
2022/02/27 01:39:04;;;;;;;6.53;2.78;;;5.90;76.50;;;;;;5018902;28;20038;-62
2022/02/27 01:41:29;;;;;;;12.32;2.47;;;5.80;76.50;;;;;;5020306;28;20885;-62
2022/02/27 01:43:55;;;;;;;8.32;2.83;;;5.90;76.60;;;;;;5021219;28;20101;-63
2022/02/27 01:46:20;;;;;;;6.88;2.40;;;5.90;76.50;;;;;;5021044;28;20528;-61
2022/02/27 01:48:46;;;;;;;11.05;3.10;;;5.90;76.60;;;;;;5018717;28;20453;-61
2022/02/27 01:51:11;;;;;;;8.98;2.67;;;5.80;76.50;;;;;;5019810;28;20120;-61
2022/02/27 01:53:37;;;;;;;5.85;2.28;;;5.80;76.60;;;;;;5020353;28;20067;-62
2022/02/27 01:56:03;;;;;;;7.20;2.50;;;5.80;76.60;;;;;;5021553;28;20061;-62
2022/02/27 01:58:28;;;;;;;6.68;2.40;;;5.80;76.60;;;;;;5016670;28;21286;-61
2022/02/27 02:00:58;;;;;;;7.97;2.53;;;5.70;76.70;;;;;;5019200;28;20136;-62
2022/02/27 02:03:24;;;;;;;4.55;2.42;;;5.70;76.80;;;;;;5017950;28;20034;-63
2022/02/27 02:05:49;;;;;;;8.90;2.95;;;5.70;76.70;;;;;;5019401;28;20041;-62
2022/02/27 02:08:15;;;;;;;13.32;3.00;;;5.70;76.70;;;;;;5021481;28;20550;-63
2022/02/27 02:10:41;;;;;;;6.57;3.10;;;5.70;76.70;;;;;;5019955;28;20453;-62
2022/02/27 02:13:07;;;;;;;7.35;2.40;;;5.70;76.80;;;;;;5020687;28;20029;-63
2022/02/27 02:15:32;;;;;;;6.72;2.60;;;5.70;76.80;;;;;;5018393;28;20048;-63
2022/02/27 02:17:58;;;;;;;7.90;2.67;;;5.70;76.80;;;;;;5018254;28;20040;-61
2022/02/27 02:20:23;;;;;;;6.57;2.33;;;5.70;76.90;;;;;;5003788;28;20046;-61
2022/02/27 02:22:49;;;;;;;6.93;2.33;;;5.60;76.80;;;;;;5022659;28;20087;-62
2022/02/27 02:25:14;;;;;;;4.88;2.15;;;5.60;76.80;;;;;;5023461;28;20037;-62
2022/02/27 02:27:40;;;;;;;7.43;2.45;;;5.60;76.80;;;;;;5021899;28;20034;-62
2022/02/27 02:30:09;;;;;;;4.75;2.35;;;5.60;76.80;;;;;;5022195;28;20052;-63
2022/02/27 02:32:47;;;;;;;7.85;2.63;;;5.50;76.70;;;;;;5021679;28;20402;-62
2022/02/27 02:35:13;;;;;;;5.75;2.60;;;5.50;76.80;;;;;;5008459;28;20511;-62
2022/02/27 02:37:38;;;;;;;8.48;2.60;;;5.50;76.90;;;;;;5024245;28;20038;-61
2022/02/27 02:40:05;;;;;;;7.55;2.42;;;5.50;77.00;;;;;;5022228;28;20097;-62
2022/02/27 02:42:30;;;;;;;7.68;2.85;;;5.50;77.00;;;;;;5022257;28;20489;-63
2022/02/27 02:44:56;;;;;;;10.73;2.60;;;5.50;77.00;;;;;;5022256;28;20081;-61
2022/02/27 02:47:22;;;;;;;6.28;2.45;;;5.50;77.00;;;;;;5022399;28;20037;-63
2022/02/27 02:49:47;;;;;;;8.63;2.38;;;5.50;77.00;;;;;;5024118;28;20071;-62
2022/02/27 02:52:15;;;;;;;5.93;1.90;;;5.50;76.90;;;;;;5005094;28;20037;-62
2022/02/27 02:54:41;;;;;;;6.20;2.30;;;5.40;76.80;;;;;;5020062;28;20483;-62
2022/02/27 02:57:06;;;;;;;7.30;2.72;;;5.40;76.70;;;;;;5020118;28;20311;-63
2022/02/27 02:59:32;;;;;;;8.10;2.53;;;5.40;76.80;;;;;;5021926;28;20132;-62
2022/02/27 03:01:57;;;;;;;6.63;2.70;;;5.40;77.00;;;;;;5023819;28;20039;-62
2022/02/27 03:04:23;;;;;;;6.78;2.17;;;5.30;76.90;;;;;;5025135;28;20117;-62
2022/02/27 03:06:48;;;;;;;6.85;2.22;;;5.40;77.00;;;;;;5021901;28;20049;-62
2022/02/27 03:09:14;;;;;;;8.02;2.78;;;5.30;76.90;;;;;;5021959;28;20029;-63
2022/02/27 03:11:39;;;;;;;5.55;2.67;;;5.40;77.00;;;;;;5021358;28;20076;-62
2022/02/27 03:14:05;;;;;;;4.43;2.38;;;5.30;77.00;;;;;;5022897;28;20108;-62
2022/02/27 03:16:30;;;;;;;7.60;2.60;;;5.30;77.00;;;;;;5024536;28;20076;-62
2022/02/27 03:18:56;;;;;;;8.48;2.70;;;5.30;77.10;;;;;;5021134;28;20395;-63
2022/02/27 03:21:22;;;;;;;6.80;2.67;;;5.30;77.10;;;;;;5022834;28;20115;-62
2022/02/27 03:23:49;;;;;;;5.90;2.10;;;5.30;77.20;;;;;;5004534;28;20033;-62
2022/02/27 03:26:16;;;;;;;5.78;2.55;;;5.30;77.10;;;;;;5023105;28;20548;-62
2022/02/27 03:28:42;;;;;;;5.82;2.00;;;5.30;77.10;;;;;;5022088;28;20022;-62
2022/02/27 03:31:08;;;;;;;7.68;2.42;;;5.30;77.20;;;;;;5022553;28;20059;-61
2022/02/27 03:33:33;;;;;;;6.70;1.90;;;5.30;77.20;;;;;;5022193;28;20021;-62
2022/02/27 03:35:59;;;;;;;5.05;2.30;;;5.20;77.30;;;;;;5022883;28;20435;-61
2022/02/27 03:38:24;;;;;;;6.93;2.10;;;5.20;77.30;;;;;;5022482;28;20137;-62
2022/02/27 03:40:50;;;;;;;7.80;2.53;;;5.20;77.40;;;;;;5024389;28;20033;-62
2022/02/27 03:43:15;;;;;;;6.07;2.20;;;5.20;77.30;;;;;;5020992;28;20041;-62
2022/02/27 03:45:41;;;;;;;7.15;2.45;;;5.20;77.40;;;;;;5019319;28;20147;-62
2022/02/27 03:48:06;;;;;;;5.32;2.35;;;5.20;77.40;;;;;;5019606;28;20156;-62
2022/02/27 03:50:32;;;;;;;4.97;2.10;;;5.20;77.50;;;;;;5020524;28;20053;-62
2022/02/27 03:52:57;;;;;;;6.50;2.50;;;5.10;77.40;;;;;;5023192;28;20089;-63
2022/02/27 03:55:23;;;;;;;3.60;1.80;;;5.10;77.40;;;;;;5024580;28;20659;-62
2022/02/27 03:57:48;;;;;;;6.82;2.58;;;5.10;77.40;;;;;;5020501;28;20574;-62
2022/02/27 04:00:16;;;;;;;6.13;1.95;;;5.10;77.50;;;;;;5021889;28;20246;-62
2022/02/27 04:02:45;;;;;;;7.85;2.28;;;5.10;77.60;;;;;;5004040;28;20125;-61
2022/02/27 04:05:10;;;;;;;6.63;2.33;;;5.10;77.50;;;;;;5022014;28;20030;-62
2022/02/27 04:07:36;;;;;;;8.27;2.20;;;5.10;77.60;;;;;;5023701;28;20084;-62
2022/02/27 04:10:02;;;;;;;7.65;2.33;;;5.10;77.60;;;;;;5023443;28;20057;-63
2022/02/27 04:12:27;;;;;;;7.00;2.80;;;5.10;77.70;;;;;;5019612;28;20388;-63
2022/02/27 04:14:53;;;;;;;4.63;2.45;;;5.10;77.70;;;;;;5021850;28;20030;-63
2022/02/27 04:17:19;;;;;;;5.80;2.05;;;5.10;77.80;;;;;;5020852;28;20500;-62
2022/02/27 04:19:44;;;;;;;5.13;2.10;;;5.10;77.80;;;;;;5023307;28;20283;-62
2022/02/27 04:22:10;;;;;;;4.65;2.17;;;5.10;77.80;;;;;;5021633;28;20026;-63
2022/02/27 04:24:35;;;;;;;4.85;2.10;;;5.00;77.80;;;;;;5022489;28;20472;-62
2022/02/27 04:27:01;;;;;;;5.90;2.50;;;5.00;77.90;;;;;;5018838;28;20077;-62
2022/02/27 04:29:26;;;;;;;6.35;2.03;;;5.00;77.80;;;;;;5019893;28;20100;-62
2022/02/27 04:31:52;;;;;;;6.70;2.38;;;5.00;77.90;;;;;;5023311;28;20071;-62
2022/02/27 04:34:18;;;;;;;4.10;1.90;;;5.00;77.90;;;;;;5022433;28;20030;-62
2022/02/27 04:36:43;;;;;;;4.50;1.80;;;4.90;77.80;;;;;;5019314;28;20072;-62
2022/02/27 04:39:09;;;;;;;4.53;2.40;;;5.00;77.90;;;;;;5021717;28;20026;-62
2022/02/27 04:41:34;;;;;;;4.60;2.20;;;4.90;78.00;;;;;;5019540;28;20041;-62
2022/02/27 04:44:00;;;;;;;6.10;2.10;;;4.90;78.10;;;;;;5021472;28;20025;-62
2022/02/27 04:46:25;;;;;;;4.82;1.80;;;4.90;78.00;;;;;;5022118;28;20048;-62
2022/02/27 04:48:51;;;;;;;6.07;2.78;;;4.90;78.10;;;;;;5020380;28;20060;-62
2022/02/27 04:51:16;;;;;;;5.38;2.20;;;5.00;78.10;;;;;;5019444;28;20495;-62
2022/02/27 04:53:45;;;;;;;6.47;2.53;;;4.90;78.10;;;;;;5018284;28;20042;-62
2022/02/27 04:56:10;;;;;;;6.85;2.17;;;4.90;78.20;;;;;;5021559;28;20033;-62
2022/02/27 04:58:36;;;;;;;5.15;2.17;;;4.90;78.20;;;;;;5022629;28;20030;-62
2022/02/27 05:01:01;;;;;;;3.05;1.90;;;4.90;78.20;;;;;;5004803;28;20029;-62
2022/02/27 05:03:27;;;;;;;5.40;2.33;;;4.90;78.10;;;;;;5021353;28;20049;-62
2022/02/27 05:05:52;;;;;;;8.05;2.63;;;4.90;78.10;;;;;;5019368;28;20393;-62
2022/02/27 05:08:18;;;;;;;7.63;2.47;;;4.90;78.20;;;;;;5020202;28;20104;-63
2022/02/27 05:10:43;;;;;;;7.50;2.20;;;4.80;78.20;;;;;;5020181;28;20227;-62
2022/02/27 05:13:09;;;;;;;5.28;2.47;;;4.90;78.30;;;;;;5022581;28;20029;-62
2022/02/27 05:15:35;;;;;;;8.98;2.80;;;4.80;78.40;;;;;;5021725;28;20049;-62
2022/02/27 05:18:01;;;;;;;6.57;2.63;;;4.80;78.30;;;;;;5019081;28;20135;-62
2022/02/27 05:20:26;;;;;;;3.28;2.03;;;4.80;78.40;;;;;;5019633;28;20160;-61
2022/02/27 05:22:52;;;;;;;4.13;2.20;;;4.80;78.40;;;;;;5019828;28;20092;-63
2022/02/27 05:25:19;;;;;;;4.10;2.00;;;4.70;78.40;;;;;;5020532;28;20412;-62
2022/02/27 05:27:49;;;;;;;6.38;2.60;;;4.80;78.40;;;;;;5020793;28;20017;-62
2022/02/27 05:30:15;;;;;;;5.63;2.13;;;4.70;78.40;;;;;;5018670;28;20045;-62
2022/02/27 05:32:40;;;;;;;6.60;2.05;;;4.80;78.40;;;;;;5020932;28;20036;-62
2022/02/27 05:35:06;;;;;;;6.97;2.47;;;4.70;78.40;;;;;;5018051;28;20037;-62
2022/02/27 05:37:32;;;;;;;5.07;2.35;;;4.70;78.50;;;;;;5019999;28;20534;-62
2022/02/27 05:39:58;;;;;;;7.32;2.58;;;4.70;78.60;;;;;;5020438;28;20032;-63
2022/02/27 05:42:23;;;;;;;6.43;2.10;;;4.70;78.60;;;;;;5003637;28;20029;-62
2022/02/27 05:44:49;;;;;;;4.72;2.40;;;4.70;78.70;;;;;;5021045;28;20046;-62
2022/02/27 05:47:14;;;;;;;5.35;2.05;;;4.70;78.60;;;;;;5001952;28;20052;-61
2022/02/27 05:49:40;;;;;;;4.75;2.13;;;4.70;78.70;;;;;;5020652;28;20033;-61
2022/02/27 05:52:05;;;;;;;3.80;1.83;;;4.70;78.70;;;;;;5021426;28;20063;-63
2022/02/27 05:54:31;;;;;;;6.50;2.42;;;4.60;78.80;;;;;;5020065;28;20048;-63
2022/02/27 05:56:57;;;;;;;3.47;1.85;;;4.60;78.80;;;;;;5020463;28;20056;-61
2022/02/27 05:59:22;;;;;;;8.68;2.35;;;4.60;78.80;;;;;;5015883;28;20030;-62
2022/02/27 06:01:48;;;;;;;14.95;2.22;;;4.60;78.90;;;;;;5023123;28;20049;-62
2022/02/27 06:04:15;;;;;;;4.97;2.30;;;4.60;79.00;;;;;;5025676;28;20112;-61
2022/02/27 06:06:41;;;;;;;7.80;2.60;;;4.60;79.10;;;;;;5023115;28;20071;-62
2022/02/27 06:09:06;;;;;;;23.50;4.30;;;4.60;79.10;;;;;;5024846;28;20096;-62
2022/02/27 06:11:32;;;;;;;13.00;3.42;;;4.60;79.10;;;;;;5021426;28;20426;-61
2022/02/27 06:13:57;;;;;;;16.42;3.08;;;4.60;79.10;;;;;;5022359;28;20056;-62
2022/02/27 06:16:23;;;;;;;19.20;3.35;;;4.60;79.20;;;;;;5022783;28;20049;-62
2022/02/27 06:18:48;;;;;;;9.90;2.85;;;4.60;79.20;;;;;;5024409;28;20034;-61
2022/02/27 06:21:14;;;;;;;15.52;4.05;;;4.50;79.10;;;;;;5022814;28;20037;-61
2022/02/27 06:23:39;;;;;;;13.70;3.03;;;4.60;79.20;;;;;;5023743;28;20474;-61
2022/02/27 06:26:05;;;;;;;10.07;3.92;;;4.60;79.20;;;;;;5022186;28;20117;-61
2022/02/27 06:28:30;;;;;;;14.00;3.05;;;4.60;79.30;;;;;;5025062;28;20091;-62
2022/02/27 06:30:56;;;;;;;13.10;3.67;;;4.60;79.40;;;;;;5023227;28;20521;-62
2022/02/27 06:33:21;;;;;;;13.43;3.70;;;4.50;79.30;;;;;;5024006;28;20139;-62
2022/02/27 06:35:47;;;;;;;14.20;3.20;;;4.50;79.40;;;;;;5021380;28;20048;-62
2022/02/27 06:38:12;;;;;;;12.95;2.80;;;4.50;79.50;;;;;;5021647;28;20032;-62
2022/02/27 06:40:38;;;;;;;15.50;3.42;;;4.50;79.80;;;;;;5021328;28;20190;-63
2022/02/27 06:43:06;;;;;;;8.20;2.50;;;4.50;80.00;;;;;;5024999;28;20260;-62
2022/02/27 06:45:32;;;;;;;8.63;2.97;;;4.50;80.10;;;;;;5005931;28;20211;-61
2022/02/27 06:47:58;;;;;;;11.27;2.53;;;4.50;80.10;;;;;;5020265;28;20168;-63
2022/02/27 06:50:24;;;;;;;11.10;3.35;;;4.50;80.00;;;;;;5022874;28;20021;-62
2022/02/27 06:52:50;;;;;;;10.35;3.20;;;4.50;80.10;;;;;;5022523;28;20049;-62
2022/02/27 06:55:16;;;;;;;11.77;3.15;;;4.50;80.10;;;;;;5023219;28;20114;-63
2022/02/27 06:57:43;;;;;;;12.65;3.47;;;4.50;80.30;;;;;;5018627;28;20033;-62
2022/02/27 07:00:09;;;;;;;9.20;2.88;;;4.50;80.30;;;;;;5023461;28;20123;-62
2022/02/27 07:02:35;;;;;;;13.82;3.40;;;4.50;80.40;;;;;;5022266;28;20057;-62
2022/02/27 07:05:01;;;;;;;60.33;6.68;;;4.50;80.50;;;;;;5020126;28;20029;-62
2022/02/27 07:07:26;;;;;;;132.65;12.05;;;4.50;80.50;;;;;;5022811;28;20542;-62
2022/02/27 07:09:52;;;;;;;127.07;10.68;;;4.50;80.60;;;;;;5022149;28;20041;-63
2022/02/27 07:12:17;;;;;;;134.40;12.48;;;4.50;80.60;;;;;;5023856;28;20026;-61
2022/02/27 07:14:43;;;;;;;122.10;11.90;;;4.50;80.50;;;;;;5022063;28;20389;-61
2022/02/27 07:17:09;;;;;;;125.97;12.05;;;4.50;80.50;;;;;;5023197;28;20029;-63
2022/02/27 07:19:36;;;;;;;81.82;9.38;;;4.50;80.60;;;;;;5020950;28;20115;-61
2022/02/27 07:22:02;;;;;;;80.78;9.70;;;4.50;80.50;;;;;;5021882;28;20038;-62
2022/02/27 07:24:28;;;;;;;76.88;9.10;;;4.50;80.50;;;;;;5021597;28;20048;-62
2022/02/27 07:26:53;;;;;;;87.50;11.45;;;4.50;80.60;;;;;;5020730;28;20033;-61
2022/02/27 07:29:19;;;;;;;91.80;8.90;;;4.50;80.60;;;;;;5001769;28;20033;-62
2022/02/27 07:31:44;;;;;;;87.75;8.10;;;4.50;80.60;;;;;;5019254;28;20562;-62
2022/02/27 07:34:12;;;;;;;83.55;9.07;;;4.40;80.50;;;;;;5023631;28;20032;-63
2022/02/27 07:36:37;;;;;;;105.30;10.23;;;4.50;80.60;;;;;;5023245;28;20044;-61
2022/02/27 07:39:03;;;;;;;69.55;7.53;;;4.50;80.40;;;;;;5021028;28;20485;-62
2022/02/27 07:41:28;;;;;;;83.53;7.95;;;4.50;80.50;;;;;;5022475;28;20029;-62
2022/02/27 07:43:54;;;;;;;74.10;8.93;;;4.50;80.50;;;;;;5021124;28;20041;-62
2022/02/27 07:46:19;;;;;;;68.43;8.15;;;4.50;80.50;;;;;;5020839;28;20553;-62
2022/02/27 07:48:45;;;;;;;56.88;8.45;;;4.50;80.50;;;;;;5020979;28;20515;-62
2022/02/27 07:51:11;;;;;;;68.45;8.00;;;4.50;80.40;;;;;;5022466;28;20044;-61
2022/02/27 07:53:37;;;;;;;42.80;7.45;;;4.60;80.40;;;;;;5020995;28;20274;-63
2022/02/27 07:56:02;;;;;;;44.28;7.10;;;4.50;80.40;;;;;;5003829;28;20481;-61
2022/02/27 07:58:28;;;;;;;58.00;7.05;;;4.50;80.40;;;;;;5018627;28;20041;-62
2022/02/27 08:00:53;;;;;;;61.42;8.13;;;4.50;80.30;;;;;;5021217;28;20033;-63
2022/02/27 08:03:19;;;;;;;77.22;7.55;;;4.50;80.30;;;;;;5023511;28;20026;-62
2022/02/27 08:05:44;;;;;;;44.60;6.38;;;4.50;80.30;;;;;;5017298;28;20029;-62
2022/02/27 08:08:10;;;;;;;59.83;6.60;;;4.50;80.40;;;;;;5019673;28;20108;-62
2022/02/27 08:10:35;;;;;;;53.13;6.13;;;4.50;80.30;;;;;;5020689;28;20040;-63
2022/02/27 08:13:01;;;;;;;47.53;6.53;;;4.50;80.20;;;;;;5020898;28;20041;-63
2022/02/27 08:15:26;;;;;;;34.88;5.55;;;4.50;80.20;;;;;;5021979;28;20034;-62
2022/02/27 08:17:53;;;;;;;35.72;5.75;;;4.50;80.20;;;;;;5022080;28;20113;-61
2022/02/27 08:20:18;;;;;;;38.63;5.25;;;4.50;80.30;;;;;;5020958;28;20057;-62
2022/02/27 08:22:44;;;;;;;36.30;6.38;;;4.50;80.20;;;;;;5019943;28;20071;-62
2022/02/27 08:25:12;;;;;;;50.60;6.50;;;4.50;80.10;;;;;;5019332;28;20067;-62
2022/02/27 08:27:38;;;;;;;32.30;5.25;;;4.50;80.10;;;;;;5021316;28;20021;-62
2022/02/27 08:30:04;;;;;;;49.53;5.88;;;4.50;80.20;;;;;;5020165;28;20302;-63
2022/02/27 08:32:30;;;;;;;35.92;6.38;;;4.50;80.20;;;;;;5020262;28;20030;-62
2022/02/27 08:34:55;;;;;;;35.58;5.78;;;4.50;80.30;;;;;;5020042;28;20084;-62
2022/02/27 08:37:21;;;;;;;29.77;5.00;;;4.50;80.20;;;;;;5019071;28;20041;-62
2022/02/27 08:39:46;;;;;;;38.67;5.72;;;4.50;80.10;;;;;;5021758;28;20358;-62
2022/02/27 08:42:12;;;;;;;50.78;6.13;;;4.60;80.20;;;;;;5024204;28;20040;-62
2022/02/27 08:44:38;;;;;;;36.50;5.18;;;4.50;80.20;;;;;;5018961;28;20038;-62
2022/02/27 08:47:04;;;;;;;31.35;5.30;;;4.50;80.30;;;;;;5019841;28;20551;-63
2022/02/27 08:49:30;;;;;;;35.35;5.05;;;4.60;80.30;;;;;;5019115;28;20041;-62
2022/02/27 08:51:56;;;;;;;41.50;5.40;;;4.50;80.30;;;;;;5019133;28;20037;-63
2022/02/27 08:54:22;;;;;;;31.00;4.35;;;4.50;80.30;;;;;;5020889;28;20052;-62
2022/02/27 08:56:47;;;;;;;34.72;4.95;;;4.60;80.30;;;;;;5018945;28;20076;-62
2022/02/27 08:59:13;;;;;;;30.50;4.85;;;4.60;80.30;;;;;;5017295;28;20065;-63
2022/02/27 09:01:38;;;;;;;30.00;4.30;;;4.50;80.10;;;;;;5017783;28;20056;-62
2022/02/27 09:04:05;;;;;;;24.77;4.63;;;4.60;80.20;;;;;;5019795;28;20034;-62
2022/02/27 09:06:30;;;;;;;16.70;4.20;;;4.60;80.10;;;;;;5021028;28;20032;-62
2022/02/27 09:08:56;;;;;;;25.45;4.70;;;4.50;80.10;;;;;;5004187;28;20022;-63
2022/02/27 09:11:21;;;;;;;19.40;4.18;;;4.60;80.00;;;;;;5017770;28;20041;-62
2022/02/27 09:13:47;;;;;;;18.77;3.90;;;4.60;80.00;;;;;;5020198;28;20021;-62
2022/02/27 09:16:13;;;;;;;20.30;3.78;;;4.60;80.10;;;;;;5019869;28;20036;-62
2022/02/27 09:18:38;;;;;;;43.70;4.47;;;4.60;80.00;;;;;;5018805;28;20507;-62
2022/02/27 09:21:04;;;;;;;22.48;3.88;;;4.60;80.00;;;;;;5019434;28;20488;-62
2022/02/27 09:23:29;;;;;;;16.02;4.40;;;4.60;80.00;;;;;;5019668;28;20022;-63
2022/02/27 09:25:55;;;;;;;20.60;3.90;;;4.60;80.00;;;;;;5019696;28;20056;-62
2022/02/27 09:28:21;;;;;;;14.30;3.50;;;4.70;79.90;;;;;;5002988;28;20037;-63
2022/02/27 09:30:46;;;;;;;23.25;4.25;;;4.70;79.90;;;;;;5016735;28;20116;-62
2022/02/27 09:33:12;;;;;;;18.05;4.15;;;4.70;79.90;;;;;;5022843;28;20059;-62
2022/02/27 09:35:37;;;;;;;20.02;3.90;;;4.70;79.90;;;;;;5008691;28;20131;-62
2022/02/27 09:38:03;;;;;;;13.95;3.92;;;4.70;79.90;;;;;;5025993;28;20063;-62
2022/02/27 09:40:28;;;;;;;19.85;4.20;;;4.70;80.50;;;;;;5009309;28;20485;-62
2022/02/27 09:42:54;;;;;;;30.25;4.53;;;4.80;79.90;;;;;;5026280;28;20064;-62
2022/02/27 09:45:23;;;;;;;28.33;4.80;;;4.70;80.00;;;;;;5025476;28;20045;-62
2022/02/27 09:47:49;;;;;;;36.78;6.20;;;4.80;79.90;;;;;;5011092;28;20759;-62
2022/02/27 09:50:15;;;;;;;37.38;5.20;;;4.80;80.00;;;;;;5007935;28;20158;-62
2022/02/27 09:52:41;;;;;;;34.28;4.57;;;4.80;80.00;;;;;;5024768;28;20025;-62
2022/02/27 09:55:09;;;;;;;28.92;5.05;;;4.90;80.00;;;;;;5007384;28;20092;-62
2022/02/27 09:57:34;;;;;;;28.98;5.25;;;4.90;80.00;;;;;;5006242;28;20026;-62
2022/02/27 10:00:00;;;;;;;40.08;5.20;;;4.90;80.00;;;;;;5021719;28;20028;-62
2022/02/27 10:02:26;;;;;;;38.75;6.50;;;4.90;80.00;;;;;;5021160;28;20033;-61
2022/02/27 10:04:51;;;;;;;47.10;7.15;;;5.00;80.20;;;;;;5022960;28;20033;-61
2022/02/27 10:07:18;;;;;;;64.05;8.75;;;5.00;80.20;;;;;;5019351;28;20125;-62
2022/02/27 10:09:44;;;;;;;49.47;7.15;;;5.00;80.10;;;;;;5001144;28;20038;-62
2022/02/27 10:12:19;;;;;;;35.40;5.82;;;5.00;80.20;;;;;;5025293;28;20521;-61
2022/02/27 10:15:04;;;;;;;;;;;5.10;80.20;;;;;;5008099;28;20497;-62
2022/02/27 10:17:31;;;;;;;41.40;7.07;;;5.10;80.30;;;;;;5023449;28;19917;-62
2022/02/27 10:19:57;;;;;;;70.10;8.07;;;5.10;80.40;;;;;;5021224;28;20029;-62
2022/02/27 10:22:29;;;;;;;43.92;6.95;;;5.20;80.40;;;;;;5021175;28;20042;-61
2022/02/27 10:24:55;;;;;;;50.40;8.25;;;5.20;80.20;;;;;;5023772;28;20950;-62
2022/02/27 10:27:21;;;;;;;103.57;11.85;;;5.20;80.40;;;;;;5021321;28;20037;-61
2022/02/27 10:29:46;;;;;;;51.50;7.88;;;5.20;80.60;;;;;;5021023;28;20068;-63
2022/02/27 10:32:12;;;;;;;57.65;8.38;;;5.20;80.50;;;;;;5021737;28;20445;-63
2022/02/27 10:34:38;;;;;;;64.38;9.25;;;5.30;80.60;;;;;;5018883;28;20116;-61
2022/02/27 10:37:06;;;;;;;51.20;8.13;;;5.30;80.80;;;;;;5019768;28;20045;-62
2022/02/27 10:39:41;;;;;;;60.00;8.75;;;5.30;80.70;;;;;;5022303;28;20121;-61
2022/02/27 10:42:19;;;;;;;97.60;10.17;;;5.40;80.60;;;;;;5020718;28;20026;-62
2022/02/27 10:44:52;;;;;;;72.78;9.43;;;5.40;80.50;;;;;;5020158;28;20034;-61
2022/02/27 10:47:22;;;;;;;82.85;10.07;;;5.40;80.70;;;;;;5021315;28;20042;-63
2022/02/27 10:49:49;;;;;;;81.55;8.73;;;5.40;80.70;;;;;;5005996;28;20104;-62
2022/02/27 10:52:15;;;;;;;96.63;11.45;;;5.50;80.60;;;;;;5023932;28;20508;-63
2022/02/27 10:54:41;;;;;;;64.65;9.50;;;5.50;80.40;;;;;;5022130;28;20053;-62
2022/02/27 10:57:29;;;;;;;52.30;9.90;;;5.50;80.40;;;;;;5020948;28;20025;-61
2022/02/27 10:59:55;;;;;;;80.78;11.18;;;5.50;80.40;;;;;;5020330;28;20186;-62
2022/02/27 11:02:23;;;;;;;76.88;10.57;;;5.60;80.40;;;;;;5013138;28;20037;-62
2022/02/27 11:04:48;;;;;;;65.82;9.65;;;5.70;80.50;;;;;;5019535;28;20034;-61
2022/02/27 11:07:14;;;;;;;72.45;10.50;;;5.60;80.10;;;;;;5021394;28;20449;-62
2022/02/27 11:09:39;;;;;;;66.60;10.65;;;5.70;80.20;;;;;;4998971;28;20029;-62
2022/02/27 11:12:06;;;;;;;91.35;10.98;;;5.70;80.20;;;;;;4985365;28;20356;-62
2022/02/27 11:14:32;;;;;;;91.47;12.70;;;5.70;79.90;;;;;;5019187;28;20049;-62
2022/02/27 11:16:58;;;;;;;133.00;14.75;;;5.70;79.90;;;;;;5004789;28;20507;-63
2022/02/27 11:19:23;;;;;;;110.97;12.88;;;5.80;79.90;;;;;;5004820;28;20081;-62
2022/02/27 11:21:49;;;;;;;117.18;13.73;;;5.80;79.90;;;;;;5002570;28;20107;-61
2022/02/27 11:24:14;;;;;;;97.03;12.00;;;5.80;79.90;;;;;;5018773;28;20248;-62
2022/02/27 11:26:40;;;;;;;94.82;13.65;;;5.90;80.00;;;;;;5010226;28;20507;-62
2022/02/27 11:29:08;;;;;;;87.38;13.60;;;5.90;79.40;;;;;;5014979;28;20058;-63
2022/02/27 11:31:33;;;;;;;104.07;13.32;;;5.90;79.50;;;;;;5020791;28;20030;-61
2022/02/27 11:34:15;;;;;;;117.90;15.35;;;6.00;79.40;;;;;;5016973;28;20540;-61
2022/02/27 11:36:41;;;;;;;142.75;15.57;;;6.00;79.20;;;;;;5001694;28;20413;-62
2022/02/27 11:40:27;;;;;;;166.13;15.45;;;6.00;78.70;;;;;;5001912;28;20022;-62
2022/02/27 11:41:52;;;;;;;165.48;18.17;;;6.10;78.90;;;;;;5005552;28;20143;-62
2022/02/27 11:44:17;;;;;;;127.63;13.77;;;6.10;78.70;;;;;;5014588;28;20038;-62
2022/02/27 11:46:44;;;;;;;122.97;15.55;;;6.20;78.60;;;;;;5007338;28;20037;-62
2022/02/27 11:49:17;;;;;;;130.07;14.25;;;6.00;78.50;;;;;;5002338;28;20056;-63
2022/02/27 11:51:44;;;;;;;158.00;20.63;;;6.30;78.70;;;;;;5004047;28;20088;-61
2022/02/27 11:54:14;;;;;;;153.40;16.33;;;6.30;78.70;;;;;;5021991;28;20069;-62
2022/02/27 11:56:42;;;;;;;226.57;21.80;;;6.30;78.80;;;;;;5004870;28;20338;-61
2022/02/27 11:59:11;;;;;;;136.88;18.10;;;6.40;78.80;;;;;;5022645;28;20026;-62
2022/02/27 12:01:37;;;;;;;156.88;18.10;;;6.40;78.40;;;;;;5021788;28;20072;-62
2022/02/27 12:04:21;;;;;;;207.43;19.90;;;6.50;78.30;;;;;;5022271;28;20760;-61
2022/02/27 12:07:05;;;;;;;154.35;16.92;;;6.50;78.30;;;;;;5021792;28;20044;-62
2022/02/27 12:09:52;;;;;;;146.30;18.80;;;6.50;78.20;;;;;;5003805;28;20859;-62
2022/02/27 12:12:38;;;;;;;179.52;20.17;;;6.60;78.30;;;;;;5025278;28;20334;-61
2022/02/27 12:15:24;;;;;;;231.55;25.83;;;6.60;78.20;;;;;;5021312;28;20080;-62
2022/02/27 12:17:57;;;;;;;478.17;53.15;;;6.70;78.10;;;;;;5022457;28;20669;-62
2022/02/27 12:20:42;;;;;;;237.60;26.50;;;6.70;78.10;;;;;;5021965;28;20052;-62
2022/02/27 12:23:10;;;;;;;165.68;21.23;;;6.70;78.30;;;;;;5021530;28;20041;-61
2022/02/27 12:25:39;;;;;;;185.48;21.13;;;6.70;77.90;;;;;;5005046;28;20026;-64
2022/02/27 12:28:05;;;;;;;133.07;19.48;;;6.80;77.80;;;;;;5021406;28;20135;-62
2022/02/27 12:30:31;;;;;;;138.02;19.92;;;6.80;77.60;;;;;;5018926;28;20108;-62
2022/02/27 12:33:10;;;;;;;195.93;19.90;;;6.80;77.40;;;;;;5023455;28;20112;-62
2022/02/27 12:35:39;;;;;;;213.80;25.40;;;6.90;77.20;;;;;;5018691;28;20029;-62
2022/02/27 12:38:10;;;;;;;150.15;19.08;;;7.00;77.10;;;;;;5019200;28;20038;-62
2022/02/27 12:40:36;;;;;;;186.35;22.23;;;7.00;77.00;;;;;;4986079;28;20509;-61
2022/02/27 12:43:02;;;;;;;151.77;19.23;;;7.10;76.80;;;;;;4986653;28;20044;-62
2022/02/27 12:45:33;;;;;;;137.15;19.17;;;7.10;76.40;;;;;;5016893;28;20041;-61